Time;durP1;ratioP1;P1;durP2;ratioP2;P2;SDS_P1;SDS_P2;PMS_P1;PMS_P2;Temp;Humidity;BMP_temperature;BMP_pressure;BME280_temperature;BME280_humidity;BME280_pressure;Samples;Min_cycle;Max_cycle;Signal;HPM_P1;HPM_P2
2022/04/04 00:00:02;;;;;;;14.63;10.87;;;0.70;99.90;;;;;;5030927;28;20450;-70
2022/04/04 00:02:30;;;;;;;15.43;11.43;;;0.60;99.90;;;;;;5031176;28;20461;-70
2022/04/04 00:04:56;;;;;;;17.13;10.70;;;0.50;99.90;;;;;;5031793;28;20450;-70
2022/04/04 00:07:23;;;;;;;13.70;11.10;;;0.50;99.90;;;;;;5031116;28;20453;-70
2022/04/04 00:09:50;;;;;;;14.83;10.60;;;0.50;99.90;;;;;;5031267;28;21012;-70
2022/04/04 00:12:17;;;;;;;14.07;11.30;;;0.50;99.90;;;;;;5027248;28;20457;-70
2022/04/04 00:14:43;;;;;;;13.20;10.97;;;0.50;99.90;;;;;;5032548;28;20485;-70
2022/04/04 00:17:11;;;;;;;14.27;10.37;;;0.60;99.90;;;;;;5029865;28;20519;-70
2022/04/04 00:19:39;;;;;;;13.00;10.00;;;0.60;99.90;;;;;;5029933;28;20580;-70
2022/04/04 00:22:05;;;;;;;13.87;11.00;;;0.60;99.90;;;;;;5030839;28;20482;-70
2022/04/04 00:24:33;;;;;;;16.23;10.97;;;0.70;99.90;;;;;;5030778;28;20453;-70
2022/04/04 00:27:00;;;;;;;14.10;11.40;;;0.60;99.90;;;;;;5030669;28;20462;-70
2022/04/04 00:29:26;;;;;;;13.80;10.57;;;0.80;99.90;;;;;;5030980;28;20491;-70
2022/04/04 00:31:53;;;;;;;16.00;12.07;;;0.70;99.90;;;;;;5030853;28;20454;-70
2022/04/04 00:34:20;;;;;;;12.60;10.73;;;0.70;99.90;;;;;;5030450;28;20572;-70
2022/04/04 00:36:48;;;;;;;13.43;9.37;;;0.80;99.90;;;;;;5029952;28;20454;-71
2022/04/04 00:39:16;;;;;;;15.47;11.30;;;0.70;99.90;;;;;;5031241;28;20547;-70
2022/04/04 00:41:43;;;;;;;13.30;10.90;;;0.60;99.90;;;;;;5030928;28;21203;-70
2022/04/04 00:44:10;;;;;;;12.70;9.70;;;0.60;99.90;;;;;;5030621;28;20450;-70
2022/04/04 00:46:39;;;;;;;13.97;10.40;;;0.50;99.90;;;;;;5030224;28;20445;-70
2022/04/04 00:49:06;;;;;;;11.73;10.13;;;0.50;99.90;;;;;;5031895;28;20485;-70
2022/04/04 00:51:33;;;;;;;13.30;10.20;;;0.50;99.90;;;;;;5030825;28;20442;-70
2022/04/04 00:54:02;;;;;;;13.90;10.40;;;0.50;99.90;;;;;;5028060;28;20511;-71
2022/04/04 00:56:28;;;;;;;16.00;9.70;;;0.50;99.90;;;;;;5028959;28;20507;-71
2022/04/04 00:58:55;;;;;;;11.60;10.07;;;0.40;99.90;;;;;;5030899;28;20470;-70
2022/04/04 01:01:22;;;;;;;10.97;9.57;;;0.30;99.90;;;;;;5029792;28;20483;-70
2022/04/04 01:03:49;;;;;;;12.20;9.83;;;0.30;99.90;;;;;;5030013;28;20457;-70
2022/04/04 01:06:15;;;;;;;11.73;9.80;;;0.20;99.90;;;;;;5029449;28;20448;-70
2022/04/04 01:08:43;;;;;;;10.27;9.00;;;0.30;99.90;;;;;;5031026;28;20469;-70
2022/04/04 01:11:11;;;;;;;13.23;9.90;;;0.10;99.90;;;;;;5030367;28;20533;-70
2022/04/04 01:13:44;;;;;;;11.53;9.27;;;0.20;99.90;;;;;;5029805;28;20484;-70
2022/04/04 01:16:11;;;;;;;15.30;10.43;;;0.20;99.90;;;;;;5029446;28;20481;-71
2022/04/04 01:18:38;;;;;;;13.33;10.47;;;0.10;99.90;;;;;;5030870;28;20476;-70
2022/04/04 01:21:05;;;;;;;13.13;10.70;;;0.10;99.90;;;;;;5029286;28;20540;-70
2022/04/04 01:23:39;;;;;;;11.90;9.63;;;0.10;99.90;;;;;;5029983;28;20465;-71
2022/04/04 01:26:07;;;;;;;15.33;10.93;;;0.10;99.90;;;;;;5028939;28;20945;-70
2022/04/04 01:28:34;;;;;;;12.90;10.13;;;0.10;99.90;;;;;;5029796;28;20466;-71
2022/04/04 01:31:00;;;;;;;11.60;10.30;;;0.10;99.90;;;;;;5029601;28;20946;-70
2022/04/04 01:33:27;;;;;;;14.03;11.13;;;0.00;99.90;;;;;;5029908;28;20507;-71
2022/04/04 01:35:57;;;;;;;15.27;11.03;;;0.00;99.90;;;;;;5029341;28;20481;-70
2022/04/04 01:38:23;;;;;;;13.27;10.30;;;0.00;99.90;;;;;;5028323;28;20469;-71
2022/04/04 01:40:50;;;;;;;16.00;10.80;;;0.00;99.90;;;;;;5028680;28;21329;-70
2022/04/04 01:43:18;;;;;;;14.47;10.90;;;0.00;99.90;;;;;;5029021;28;20472;-70
2022/04/04 01:48:34;;;;;;;17.43;10.90;;;-0.10;99.90;;;;;;5030163;28;20452;-71
2022/04/04 01:51:01;;;;;;;13.70;11.17;;;-0.10;99.90;;;;;;5028341;28;20454;-70
2022/04/04 01:53:27;;;;;;;11.70;9.97;;;-0.10;99.90;;;;;;5029215;28;20445;-71
2022/04/04 01:55:55;;;;;;;13.97;10.03;;;-0.10;99.90;;;;;;5025779;28;20516;-70
2022/04/04 01:58:24;;;;;;;18.43;11.80;;;-0.20;99.90;;;;;;5028396;28;20977;-71
2022/04/04 02:00:52;;;;;;;16.50;10.77;;;-0.20;99.90;;;;;;5029543;28;20457;-71
2022/04/04 02:03:18;;;;;;;14.80;10.50;;;-0.20;99.90;;;;;;5027635;28;21210;-70
2022/04/04 02:05:45;;;;;;;13.63;11.00;;;-0.20;99.90;;;;;;5029355;28;20453;-71
2022/04/04 02:08:12;;;;;;;16.63;10.73;;;-0.30;99.90;;;;;;5029092;28;20472;-70
2022/04/04 02:10:39;;;;;;;16.10;10.33;;;-0.30;99.90;;;;;;5029194;28;20449;-71
2022/04/04 02:13:06;;;;;;;12.00;10.70;;;-0.30;99.90;;;;;;5029205;28;20459;-71
2022/04/04 02:15:34;;;;;;;15.70;10.90;;;-0.40;99.90;;;;;;5022670;28;20547;-71
2022/04/04 02:18:01;;;;;;;13.60;10.77;;;-0.40;99.90;;;;;;5029218;28;20559;-71
2022/04/04 02:20:27;;;;;;;14.00;10.87;;;-0.40;99.90;;;;;;5029119;28;20461;-71
2022/04/04 02:22:54;;;;;;;14.43;10.97;;;-0.50;99.90;;;;;;5028843;28;20449;-72
2022/04/04 02:25:20;;;;;;;15.03;10.90;;;-0.50;99.90;;;;;;5027980;28;20449;-70
2022/04/04 02:27:47;;;;;;;15.57;11.00;;;-0.60;99.90;;;;;;5029369;28;21070;-71
2022/04/04 02:30:15;;;;;;;14.83;12.03;;;-0.50;99.90;;;;;;5027575;28;20603;-71
2022/04/04 02:32:42;;;;;;;14.60;11.73;;;-0.60;99.90;;;;;;5029295;28;20503;-71
2022/04/04 02:35:10;;;;;;;18.57;11.50;;;-0.60;99.90;;;;;;5028122;28;20485;-71
2022/04/04 02:37:36;;;;;;;20.53;11.80;;;-0.60;99.90;;;;;;5028491;28;20449;-72
2022/04/04 02:40:04;;;;;;;19.30;11.97;;;-0.70;99.90;;;;;;5029026;28;20458;-71
2022/04/04 02:42:30;;;;;;;14.27;12.20;;;-0.70;99.90;;;;;;5029396;28;20510;-72
2022/04/04 02:44:57;;;;;;;18.77;11.93;;;-0.70;99.90;;;;;;5028347;28;20446;-71
2022/04/04 02:47:24;;;;;;;19.70;12.00;;;-0.70;99.90;;;;;;5028387;28;20453;-71
2022/04/04 02:49:52;;;;;;;18.30;12.60;;;-0.70;99.90;;;;;;5029423;28;20449;-71
2022/04/04 02:52:18;;;;;;;16.03;11.97;;;-0.70;99.90;;;;;;5028894;28;20453;-71
2022/04/04 02:54:46;;;;;;;15.70;11.70;;;-0.70;99.90;;;;;;5031337;28;20511;-72
2022/04/04 02:57:12;;;;;;;15.30;11.07;;;-0.70;99.90;;;;;;5032283;28;20449;-71
2022/04/04 02:59:39;;;;;;;16.40;12.20;;;-0.70;99.90;;;;;;5033655;28;20492;-71
2022/04/04 03:02:06;;;;;;;17.73;12.13;;;-0.70;99.90;;;;;;5031860;28;21011;-71
2022/04/04 03:04:32;;;;;;;17.63;12.53;;;-0.70;99.90;;;;;;5031853;28;20457;-71
2022/04/04 03:07:01;;;;;;;15.53;12.20;;;-0.70;99.90;;;;;;5032113;28;20459;-70
2022/04/04 03:09:27;;;;;;;18.10;12.00;;;-0.70;99.90;;;;;;5032798;28;20477;-71
2022/04/04 03:11:54;;;;;;;19.90;12.80;;;-0.70;99.90;;;;;;5032266;28;20461;-72
2022/04/04 03:14:21;;;;;;;14.90;11.97;;;-0.80;99.90;;;;;;5032083;28;20507;-71
2022/04/04 03:16:47;;;;;;;17.33;13.03;;;-0.90;99.90;;;;;;5031713;28;20511;-71
2022/04/04 03:19:14;;;;;;;21.30;12.60;;;-0.90;99.90;;;;;;5032588;28;21884;-71
2022/04/04 03:21:41;;;;;;;21.03;12.90;;;-0.90;99.90;;;;;;5032372;28;20511;-72
2022/04/04 03:24:09;;;;;;;21.80;13.23;;;-0.90;99.90;;;;;;5032014;28;20449;-71
2022/04/04 03:26:35;;;;;;;18.83;12.70;;;-0.90;99.90;;;;;;5031296;28;20452;-71
2022/04/04 03:29:02;;;;;;;18.93;12.30;;;-1.00;99.90;;;;;;5032431;28;20542;-72
2022/04/04 03:31:29;;;;;;;20.77;13.73;;;-1.00;99.90;;;;;;5031984;28;20449;-71
2022/04/04 03:33:55;;;;;;;21.00;13.60;;;-1.00;99.90;;;;;;5032111;28;20449;-71
2022/04/04 03:36:22;;;;;;;19.30;13.93;;;-1.00;99.90;;;;;;5031006;28;20492;-71
2022/04/04 03:38:49;;;;;;;19.07;14.03;;;-1.10;99.90;;;;;;5033387;28;20481;-71
2022/04/04 03:41:17;;;;;;;18.90;13.53;;;-1.10;99.90;;;;;;5031264;28;20515;-71
2022/04/04 03:43:43;;;;;;;20.63;14.10;;;-1.10;99.90;;;;;;5031656;28;20454;-71
2022/04/04 03:46:11;;;;;;;22.17;13.80;;;-1.10;99.90;;;;;;5031338;28;21000;-71
2022/04/04 03:48:37;;;;;;;22.77;14.57;;;-1.00;99.90;;;;;;5028892;28;20577;-71
2022/04/04 03:51:04;;;;;;;22.93;15.97;;;-1.10;99.90;;;;;;5031576;28;20461;-71
2022/04/04 03:53:31;;;;;;;25.53;15.80;;;-1.10;99.90;;;;;;5031539;28;20461;-71
2022/04/04 03:55:58;;;;;;;32.10;14.60;;;-1.10;99.90;;;;;;5031315;28;20913;-71
2022/04/04 03:58:26;;;;;;;23.40;15.23;;;-1.20;99.90;;;;;;5032772;28;20469;-71
2022/04/04 04:00:53;;;;;;;26.73;16.90;;;-1.20;99.90;;;;;;5031253;28;20515;-71
2022/04/04 04:03:19;;;;;;;23.73;15.53;;;-1.20;99.90;;;;;;5030645;28;20477;-71
2022/04/04 04:05:46;;;;;;;26.77;16.97;;;-1.20;99.90;;;;;;5031311;28;20437;-71
2022/04/04 04:08:13;;;;;;;24.80;16.10;;;-1.20;99.90;;;;;;5032630;28;20468;-71
2022/04/04 04:10:39;;;;;;;30.67;16.60;;;-1.10;99.90;;;;;;5030452;28;20450;-71
2022/04/04 04:13:06;;;;;;;28.10;16.83;;;-1.20;99.90;;;;;;5030931;28;20457;-72
2022/04/04 04:15:34;;;;;;;23.07;16.27;;;-1.10;99.90;;;;;;5029991;28;20511;-71
2022/04/04 04:18:01;;;;;;;30.50;16.93;;;-1.10;99.90;;;;;;5031704;28;20484;-71
2022/04/04 04:20:31;;;;;;;28.30;17.33;;;-1.10;99.90;;;;;;5030895;28;20512;-71
2022/04/04 04:23:00;;;;;;;22.60;15.90;;;-1.10;99.90;;;;;;5031697;28;20898;-71
2022/04/04 04:25:28;;;;;;;25.63;16.60;;;-1.10;99.90;;;;;;5031236;28;20449;-71
2022/04/04 04:27:56;;;;;;;30.33;16.67;;;-1.00;99.90;;;;;;5031632;28;20865;-72
2022/04/04 04:30:22;;;;;;;28.20;16.90;;;-1.10;99.90;;;;;;5030171;28;20785;-71
2022/04/04 04:32:52;;;;;;;25.13;17.20;;;-1.00;99.90;;;;;;5031652;28;20499;-71
2022/04/04 04:35:20;;;;;;;26.70;16.10;;;-1.10;99.90;;;;;;5031246;28;20715;-71
2022/04/04 04:37:47;;;;;;;26.20;16.23;;;-1.10;99.90;;;;;;5031140;28;21287;-71
2022/04/04 04:40:14;;;;;;;29.30;16.43;;;-1.10;99.90;;;;;;5032568;28;20508;-71
2022/04/04 04:42:42;;;;;;;23.60;16.03;;;-1.10;99.90;;;;;;5031261;28;20461;-70
2022/04/04 04:45:09;;;;;;;26.80;17.00;;;-1.10;99.90;;;;;;5030323;28;20457;-71
2022/04/04 04:47:36;;;;;;;31.23;17.17;;;-1.10;99.90;;;;;;5030624;28;20469;-71
2022/04/04 04:50:06;;;;;;;26.10;16.40;;;-1.10;99.90;;;;;;5031549;28;20468;-72
2022/04/04 04:52:35;;;;;;;42.97;16.90;;;-1.10;99.90;;;;;;5030092;28;20445;-72
2022/04/04 04:55:04;;;;;;;26.50;15.00;;;-1.10;99.90;;;;;;5030849;28;20461;-71
2022/04/04 04:57:31;;;;;;;22.53;15.57;;;-1.10;99.90;;;;;;5026025;28;20450;-72
2022/04/04 04:59:58;;;;;;;25.57;16.80;;;-1.00;99.90;;;;;;5028379;28;20465;-71
2022/04/04 05:02:25;;;;;;;25.67;17.53;;;-1.10;99.90;;;;;;5030442;28;20576;-71
2022/04/04 05:04:51;;;;;;;25.47;15.50;;;-1.00;99.90;;;;;;5030540;28;20911;-71
2022/04/04 05:07:19;;;;;;;27.50;17.63;;;-1.00;99.90;;;;;;5029647;28;20453;-71
2022/04/04 05:09:46;;;;;;;24.83;16.63;;;-1.00;99.90;;;;;;5031380;28;20450;-71
2022/04/04 05:12:14;;;;;;;25.13;17.20;;;-1.00;99.90;;;;;;5030282;28;20451;-71
2022/04/04 05:14:41;;;;;;;26.63;17.00;;;-1.00;99.90;;;;;;5030533;28;20449;-71
2022/04/04 05:17:07;;;;;;;26.37;17.13;;;-1.00;99.90;;;;;;5028639;28;20485;-71
2022/04/04 05:19:34;;;;;;;33.17;17.40;;;-0.90;99.90;;;;;;5032357;28;20465;-71
2022/04/04 05:22:01;;;;;;;25.47;17.20;;;-0.90;99.90;;;;;;5029985;28;20453;-71
2022/04/04 05:24:29;;;;;;;23.17;16.37;;;-0.90;99.90;;;;;;5029574;28;20499;-71
2022/04/04 05:26:56;;;;;;;25.03;17.00;;;-0.80;99.90;;;;;;5030143;28;20481;-71
2022/04/04 05:29:26;;;;;;;25.23;18.37;;;-0.70;99.90;;;;;;5030288;28;20576;-71
2022/04/04 05:31:54;;;;;;;27.00;17.60;;;-0.70;99.90;;;;;;5030134;28;20469;-71
2022/04/04 05:34:21;;;;;;;23.30;16.10;;;-0.60;99.90;;;;;;5028109;28;21184;-71
2022/04/04 05:36:48;;;;;;;26.07;17.73;;;-0.60;99.90;;;;;;5030382;28;20480;-72
2022/04/04 05:39:14;;;;;;;26.47;17.17;;;-0.50;99.90;;;;;;5030265;28;21288;-71
2022/04/04 05:41:42;;;;;;;27.97;17.50;;;-0.50;99.90;;;;;;5029903;28;20505;-72
2022/04/04 05:44:09;;;;;;;32.80;17.73;;;-0.40;99.90;;;;;;5029721;28;20531;-71
2022/04/04 05:46:36;;;;;;;28.57;18.07;;;-0.40;99.90;;;;;;5028548;28;20442;-71
2022/04/04 05:49:03;;;;;;;31.13;19.30;;;-0.30;99.90;;;;;;5030461;28;20878;-71
2022/04/04 05:51:30;;;;;;;30.20;19.27;;;-0.30;99.90;;;;;;5029977;28;21207;-72
2022/04/04 05:53:56;;;;;;;31.20;18.57;;;-0.30;99.90;;;;;;5029406;28;20457;-71
2022/04/04 05:56:23;;;;;;;34.40;18.93;;;-0.20;99.90;;;;;;5029503;28;20492;-71
2022/04/04 05:58:51;;;;;;;33.40;20.17;;;-0.10;99.90;;;;;;5027931;28;20477;-71
2022/04/04 06:01:18;;;;;;;31.50;19.00;;;-0.10;99.90;;;;;;5027818;28;20515;-74
2022/04/04 06:03:44;;;;;;;34.87;19.10;;;0.00;99.90;;;;;;5035484;28;20461;-73
2022/04/04 06:06:11;;;;;;;30.17;19.00;;;0.10;99.90;;;;;;5029428;28;20449;-73
2022/04/04 06:08:38;;;;;;;35.33;18.80;;;0.30;99.90;;;;;;5037261;28;20531;-74
2022/04/04 06:11:04;;;;;;;30.77;18.37;;;0.40;99.90;;;;;;5031929;28;20458;-73
2022/04/04 06:13:31;;;;;;;26.50;18.00;;;0.70;99.90;;;;;;5030398;28;20446;-73
2022/04/04 06:15:59;;;;;;;29.80;17.40;;;1.00;99.90;;;;;;5029774;28;20520;-73
2022/04/04 06:18:26;;;;;;;34.90;18.00;;;1.00;99.90;;;;;;5032847;28;20468;-73
2022/04/04 06:20:53;;;;;;;23.77;17.57;;;1.20;99.90;;;;;;5029462;28;20464;-73
2022/04/04 06:23:19;;;;;;;26.60;16.80;;;1.20;99.90;;;;;;5029004;28;20523;-73
2022/04/04 06:25:49;;;;;;;28.83;17.20;;;1.30;99.90;;;;;;5019657;28;20500;-74
2022/04/04 06:28:16;;;;;;;79.93;34.50;;;1.40;99.90;;;;;;5029293;28;21048;-73
2022/04/04 06:30:43;;;;;;;46.10;24.73;;;1.60;99.90;;;;;;5029683;28;20464;-72
2022/04/04 06:33:11;;;;;;;38.33;21.97;;;1.90;99.90;;;;;;5032938;28;20510;-74
2022/04/04 06:35:38;;;;;;;33.07;17.50;;;2.40;99.90;;;;;;5025927;28;20533;-73
2022/04/04 06:38:05;;;;;;;31.57;17.23;;;3.00;99.90;;;;;;5030600;28;20560;-73
2022/04/04 06:40:32;;;;;;;22.50;15.23;;;3.50;99.90;;;;;;5028382;28;20460;-74
2022/04/04 06:42:59;;;;;;;20.60;14.20;;;3.90;99.90;;;;;;5034517;28;20456;-72
2022/04/04 06:45:26;;;;;;;21.67;14.43;;;4.20;99.90;;;;;;5031650;28;20472;-72
2022/04/04 06:47:53;;;;;;;21.77;13.77;;;4.40;99.90;;;;;;5033136;28;20508;-72
2022/04/04 06:50:22;;;;;;;17.83;13.00;;;4.40;99.90;;;;;;5032154;28;20448;-72
2022/04/04 06:52:52;;;;;;;16.57;13.90;;;4.50;99.90;;;;;;5032083;28;20540;-72
2022/04/04 06:55:19;;;;;;;16.80;11.43;;;4.60;99.90;;;;;;5031739;28;20460;-72
2022/04/04 06:57:46;;;;;;;26.40;14.10;;;4.60;99.90;;;;;;5031910;28;20500;-72
2022/04/04 07:00:16;;;;;;;18.17;13.77;;;4.60;99.90;;;;;;5031693;28;20823;-72
2022/04/04 07:02:43;;;;;;;21.80;13.37;;;4.60;99.90;;;;;;5029657;28;20565;-72
2022/04/04 07:05:10;;;;;;;14.87;11.77;;;4.50;99.90;;;;;;5031572;28;21082;-73
2022/04/04 07:07:39;;;;;;;17.70;11.43;;;4.50;99.90;;;;;;5032151;28;20981;-73
2022/04/04 07:10:06;;;;;;;15.30;12.60;;;4.40;99.90;;;;;;5032331;28;20449;-73
2022/04/04 07:12:34;;;;;;;13.33;11.80;;;4.50;99.90;;;;;;5032127;28;20846;-72
2022/04/04 07:15:01;;;;;;;17.20;13.10;;;4.60;99.90;;;;;;5029927;28;20507;-69
2022/04/04 07:17:28;;;;;;;14.33;12.20;;;4.70;99.90;;;;;;5031734;28;20595;-71
2022/04/04 07:19:54;;;;;;;14.80;11.13;;;4.80;99.90;;;;;;5031942;28;20507;-72
2022/04/04 07:22:21;;;;;;;21.57;13.63;;;4.90;99.90;;;;;;5021808;28;20953;-72
2022/04/04 07:24:50;;;;;;;16.47;13.50;;;5.10;99.90;;;;;;5025432;28;20958;-71
2022/04/04 07:27:16;;;;;;;18.50;12.27;;;5.20;99.90;;;;;;5030342;28;20465;-71
2022/04/04 07:29:43;;;;;;;16.40;13.67;;;5.20;99.90;;;;;;5031728;28;20465;-71
2022/04/04 07:32:10;;;;;;;16.17;13.13;;;5.10;99.90;;;;;;5027755;28;20508;-71
2022/04/04 07:34:37;;;;;;;17.47;13.67;;;5.00;99.90;;;;;;5030144;28;20556;-71
2022/04/04 07:37:05;;;;;;;14.93;12.63;;;4.90;99.90;;;;;;5031132;28;20477;-72
2022/04/04 07:39:32;;;;;;;14.30;12.73;;;4.90;99.90;;;;;;5022033;28;20482;-72
2022/04/04 07:42:00;;;;;;;16.37;13.23;;;4.90;99.90;;;;;;5030000;28;20457;-72
2022/04/04 07:44:27;;;;;;;15.37;11.40;;;4.80;99.90;;;;;;5026546;28;20826;-72
2022/04/04 07:46:54;;;;;;;16.83;13.50;;;4.80;99.90;;;;;;5028989;28;20536;-72
2022/04/04 07:49:21;;;;;;;16.40;12.87;;;5.00;99.90;;;;;;5029482;28;20501;-73
2022/04/04 07:51:48;;;;;;;15.50;12.63;;;5.40;99.90;;;;;;5030196;28;20477;-72
2022/04/04 07:54:14;;;;;;;19.87;13.20;;;5.60;99.90;;;;;;5030622;28;20446;-73
2022/04/04 07:56:41;;;;;;;17.67;13.50;;;5.80;99.90;;;;;;5029055;28;20488;-73
2022/04/04 07:59:10;;;;;;;14.70;12.87;;;5.90;99.90;;;;;;5029812;28;20583;-73
2022/04/04 08:01:37;;;;;;;15.87;12.67;;;6.10;99.90;;;;;;5030992;28;20453;-73
2022/04/04 08:04:04;;;;;;;14.77;11.90;;;6.00;99.90;;;;;;5032439;28;20461;-74
2022/04/04 08:06:31;;;;;;;14.73;12.10;;;6.00;99.90;;;;;;5031045;28;20524;-73
2022/04/04 08:08:58;;;;;;;16.60;11.83;;;6.30;99.90;;;;;;5030383;28;20469;-73
2022/04/04 08:11:25;;;;;;;12.30;10.83;;;6.70;99.90;;;;;;5031530;28;20453;-73
2022/04/04 08:13:52;;;;;;;13.27;11.07;;;7.10;99.90;;;;;;5030234;28;21017;-73
2022/04/04 08:16:22;;;;;;;11.90;10.70;;;7.30;99.90;;;;;;5030962;28;20464;-73
2022/04/04 08:18:48;;;;;;;15.00;10.10;;;7.40;99.90;;;;;;5029940;28;20852;-73
2022/04/04 08:21:15;;;;;;;13.10;11.20;;;7.30;99.90;;;;;;5027926;28;20465;-73
2022/04/04 08:23:42;;;;;;;15.60;10.00;;;7.20;99.90;;;;;;5029917;28;20457;-73
2022/04/04 08:26:09;;;;;;;11.53;10.33;;;7.20;99.90;;;;;;5029219;28;21036;-72
2022/04/04 08:28:36;;;;;;;13.40;11.00;;;7.40;99.90;;;;;;5023276;28;20564;-72
2022/04/04 08:31:03;;;;;;;10.90;9.23;;;7.60;99.90;;;;;;5029300;28;20477;-72
2022/04/04 08:33:31;;;;;;;11.73;9.80;;;7.80;99.90;;;;;;5030407;28;20453;-72
2022/04/04 08:36:00;;;;;;;13.07;8.57;;;8.10;99.90;;;;;;5031351;28;20453;-72
2022/04/04 08:38:27;;;;;;;9.10;8.20;;;8.20;99.90;;;;;;5030379;28;20500;-72
2022/04/04 08:40:54;;;;;;;20.27;9.00;;;8.30;99.90;;;;;;5028467;28;20469;-72
2022/04/04 08:43:20;;;;;;;13.33;8.57;;;8.30;99.90;;;;;;5027715;28;20543;-72
2022/04/04 08:45:49;;;;;;;8.20;7.27;;;8.40;99.90;;;;;;5029615;28;20803;-73
2022/04/04 08:48:18;;;;;;;8.90;8.00;;;8.00;99.90;;;;;;5030707;28;20528;-73
2022/04/04 08:50:46;;;;;;;9.10;8.20;;;7.80;99.90;;;;;;5030207;28;20468;-72
2022/04/04 08:53:14;;;;;;;8.33;7.53;;;7.90;99.90;;;;;;5020923;28;20512;-73
2022/04/04 08:55:41;;;;;;;7.43;6.73;;;8.00;99.90;;;;;;5025661;28;20603;-73
2022/04/04 08:58:10;;;;;;;11.77;8.10;;;7.90;99.90;;;;;;5021878;28;20559;-72
2022/04/04 09:00:38;;;;;;;8.23;7.53;;;8.10;99.90;;;;;;5029988;28;20461;-72
2022/04/04 09:03:06;;;;;;;9.20;8.30;;;8.30;99.90;;;;;;5036713;28;20476;-72
2022/04/04 09:05:34;;;;;;;8.43;7.63;;;8.40;99.90;;;;;;5030341;28;20460;-72
2022/04/04 09:08:05;;;;;;;6.90;6.30;;;8.60;99.90;;;;;;5028243;28;20471;-72
2022/04/04 09:10:34;;;;;;;8.73;7.83;;;8.60;99.90;;;;;;5025854;28;21018;-72
2022/04/04 09:13:09;;;;;;;8.40;7.40;;;8.60;99.90;;;;;;5030076;28;20540;-72
2022/04/04 09:16:00;;;;;;;9.67;7.50;;;8.20;99.90;;;;;;5030225;28;20457;-72
2022/04/04 09:18:49;;;;;;;8.00;7.20;;;8.20;99.90;;;;;;5024698;28;20493;-72
2022/04/04 09:21:31;;;;;;;7.67;6.97;;;8.50;99.90;;;;;;5026171;28;20446;-72
2022/04/04 09:24:02;;;;;;;8.60;7.70;;;8.80;99.90;;;;;;5029629;28;20445;-72
2022/04/04 09:26:31;;;;;;;7.80;7.10;;;8.80;99.90;;;;;;5029997;28;20819;-72
2022/04/04 09:28:59;;;;;;;7.67;6.80;;;8.60;99.90;;;;;;5028576;28;20870;-72
2022/04/04 09:31:26;;;;;;;5.27;4.77;;;8.50;99.90;;;;;;5030306;28;20445;-72
2022/04/04 09:33:53;;;;;;;7.87;7.10;;;8.40;99.90;;;;;;5028868;28;20976;-72
2022/04/04 09:36:21;;;;;;;9.10;6.50;;;8.30;99.90;;;;;;5029889;28;20453;-72
2022/04/04 09:39:00;;;;;;;9.17;6.57;;;8.20;99.90;;;;;;5034439;28;21048;-72
2022/04/04 09:41:28;;;;;;;8.43;6.63;;;7.90;99.90;;;;;;5025037;28;21148;-72
2022/04/04 09:43:57;;;;;;;9.33;6.83;;;7.70;99.90;;;;;;5028377;28;20461;-72
2022/04/04 09:46:24;;;;;;;7.57;6.80;;;7.60;99.90;;;;;;5030161;28;20503;-72
2022/04/04 09:49:08;;;;;;;6.60;6.00;;;7.30;99.90;;;;;;5028405;28;21020;-72
2022/04/04 09:51:41;;;;;;;8.77;6.90;;;7.30;99.90;;;;;;5029912;28;20827;-73
2022/04/04 09:54:09;;;;;;;7.30;6.50;;;7.40;99.90;;;;;;5027938;28;20485;-71
2022/04/04 09:56:38;;;;;;;9.20;7.07;;;7.50;99.90;;;;;;5029990;28;20441;-71
2022/04/04 09:59:05;;;;;;;7.63;6.77;;;7.60;99.90;;;;;;5027745;28;20507;-72
2022/04/04 10:01:33;;;;;;;10.13;7.13;;;7.40;99.90;;;;;;5024083;28;20458;-71
2022/04/04 10:04:03;;;;;;;5.90;5.40;;;7.30;99.90;;;;;;5028862;28;20709;-72
2022/04/04 10:06:31;;;;;;;6.07;5.10;;;7.20;99.90;;;;;;5028700;28;20507;-72
2022/04/04 10:08:58;;;;;;;5.20;4.80;;;7.00;99.90;;;;;;5028478;28;20487;-72
2022/04/04 10:11:26;;;;;;;6.00;5.50;;;7.00;99.90;;;;;;5029334;28;20449;-71
2022/04/04 10:13:55;;;;;;;6.47;5.20;;;7.20;99.90;;;;;;5024935;28;20464;-72
2022/04/04 10:16:24;;;;;;;6.83;5.50;;;7.20;99.90;;;;;;5028566;28;20475;-72
2022/04/04 10:18:51;;;;;;;8.80;5.90;;;7.30;99.90;;;;;;5028644;28;21169;-73
2022/04/04 10:21:19;;;;;;;6.30;5.70;;;7.40;99.90;;;;;;5025352;28;20449;-72
2022/04/04 10:23:48;;;;;;;5.67;5.07;;;7.50;99.90;;;;;;5025988;28;20965;-73
2022/04/04 10:26:16;;;;;;;5.77;5.27;;;7.40;99.90;;;;;;5027498;28;20533;-72
2022/04/04 10:28:44;;;;;;;6.80;6.00;;;7.40;99.90;;;;;;5028096;28;20519;-73
2022/04/04 10:31:15;;;;;;;6.70;5.70;;;7.40;99.90;;;;;;5026493;28;20454;-72
2022/04/04 10:33:42;;;;;;;5.57;5.10;;;7.60;99.90;;;;;;5028549;28;20567;-73
2022/04/04 10:36:11;;;;;;;5.10;4.70;;;7.60;99.90;;;;;;5028931;28;20957;-72
2022/04/04 10:38:39;;;;;;;7.27;6.00;;;7.50;99.90;;;;;;5028617;28;20538;-72
2022/04/04 10:41:09;;;;;;;6.20;5.70;;;7.60;99.90;;;;;;5028005;28;20457;-72
2022/04/04 10:43:38;;;;;;;5.97;5.47;;;7.70;99.90;;;;;;5027711;28;20511;-72
2022/04/04 10:46:09;;;;;;;6.90;5.90;;;7.70;99.90;;;;;;5028631;28;20453;-73
2022/04/04 10:48:39;;;;;;;6.30;5.77;;;7.70;99.90;;;;;;5026166;28;20557;-73
2022/04/04 10:51:12;;;;;;;6.70;6.10;;;7.70;99.90;;;;;;5027170;28;20454;-73
2022/04/04 10:53:42;;;;;;;5.53;5.10;;;7.60;99.90;;;;;;5028332;28;20449;-72
2022/04/04 10:56:11;;;;;;;6.20;5.40;;;7.60;99.90;;;;;;5026782;28;20457;-72
2022/04/04 10:58:38;;;;;;;5.73;5.00;;;7.60;99.90;;;;;;5028290;28;20488;-73
2022/04/04 11:01:09;;;;;;;7.03;5.20;;;7.60;99.90;;;;;;5025702;28;20518;-72
2022/04/04 11:03:39;;;;;;;6.87;5.33;;;7.60;99.90;;;;;;5027293;28;20468;-73
2022/04/04 11:09:08;;;;;;;5.03;4.53;;;7.70;99.90;;;;;;5028606;28;20552;-72
2022/04/04 11:11:44;;;;;;;6.00;5.00;;;7.80;99.90;;;;;;5027435;28;20453;-73
2022/04/04 11:14:11;;;;;;;7.03;5.50;;;7.90;99.90;;;;;;5028581;28;20846;-72
2022/04/04 11:17:30;;;;;;;9.03;6.10;;;8.00;99.90;;;;;;5031328;28;20463;-73
2022/04/04 11:20:04;;;;;;;7.13;5.63;;;8.10;99.90;;;;;;5030162;28;20457;-72
2022/04/04 11:22:33;;;;;;;8.27;5.63;;;8.30;99.90;;;;;;5031019;28;20456;-73
2022/04/04 11:25:04;;;;;;;7.57;5.50;;;8.30;99.90;;;;;;5031170;28;20544;-73
2022/04/04 11:27:33;;;;;;;5.77;4.80;;;8.30;99.90;;;;;;5031878;28;20453;-72
2022/04/04 11:30:00;;;;;;;7.87;5.90;;;8.40;99.90;;;;;;5032744;28;20460;-73
2022/04/04 11:32:31;;;;;;;6.10;5.50;;;8.50;99.90;;;;;;5033573;28;20514;-72
2022/04/04 11:35:01;;;;;;;5.60;5.10;;;8.70;99.90;;;;;;5025076;28;20945;-73
2022/04/04 11:37:29;;;;;;;10.23;6.60;;;8.60;99.90;;;;;;5031431;28;20457;-73
2022/04/04 11:40:03;;;;;;;6.30;5.70;;;8.60;99.90;;;;;;5033377;28;20524;-73
2022/04/04 11:42:31;;;;;;;5.87;5.10;;;8.60;99.90;;;;;;5031923;28;20945;-74
2022/04/04 11:44:58;;;;;;;5.80;5.20;;;8.60;99.90;;;;;;5030547;28;20806;-73
2022/04/04 11:47:25;;;;;;;8.83;5.73;;;8.40;99.90;;;;;;5020854;28;20447;-72
2022/04/04 11:49:54;;;;;;;6.33;5.70;;;8.30;99.90;;;;;;5021729;28;20462;-73
2022/04/04 11:52:24;;;;;;;6.10;5.40;;;8.20;99.90;;;;;;5031354;28;20461;-73
2022/04/04 11:54:51;;;;;;;7.83;5.40;;;8.30;99.90;;;;;;5032613;28;21170;-73
2022/04/04 11:57:21;;;;;;;6.90;6.20;;;8.30;99.90;;;;;;5030754;28;20469;-73
2022/04/04 11:59:49;;;;;;;7.30;5.53;;;8.30;99.90;;;;;;5031549;28;20446;-74
2022/04/04 12:02:16;;;;;;;5.80;5.30;;;8.40;99.90;;;;;;5033063;28;20460;-74
2022/04/04 12:04:45;;;;;;;6.50;5.80;;;8.40;99.90;;;;;;5031388;28;20453;-74
2022/04/04 12:07:12;;;;;;;5.53;5.03;;;8.60;99.90;;;;;;5030992;28;20868;-73
2022/04/04 12:09:40;;;;;;;6.23;5.63;;;8.70;99.90;;;;;;5031506;28;20469;-75
2022/04/04 12:12:09;;;;;;;6.63;5.30;;;8.80;99.90;;;;;;5025452;28;20445;-74
2022/04/04 12:14:37;;;;;;;5.23;4.73;;;8.90;99.90;;;;;;5029280;28;21115;-75
2022/04/04 12:17:04;;;;;;;6.17;5.17;;;9.10;99.90;;;;;;5031522;28;20532;-73
2022/04/04 12:19:31;;;;;;;6.77;6.07;;;9.10;99.90;;;;;;5027162;28;20544;-74
2022/04/04 12:21:59;;;;;;;6.80;5.90;;;9.20;99.90;;;;;;5029971;28;20905;-73
2022/04/04 12:27:14;;;;;;;6.17;5.57;;;8.60;99.90;;;;;;5030802;28;20457;-73
2022/04/04 12:29:42;;;;;;;7.80;6.67;;;8.50;99.90;;;;;;5024290;28;20840;-73
2022/04/04 12:32:17;;;;;;;6.57;5.90;;;8.30;99.90;;;;;;5029623;28;20464;-73
2022/04/04 12:34:58;;;;;;;6.03;5.43;;;8.30;99.90;;;;;;5028973;28;20449;-74
2022/04/04 12:37:38;;;;;;;7.53;5.50;;;8.20;99.90;;;;;;5018661;28;20462;-73
2022/04/04 12:40:19;;;;;;;6.23;5.63;;;8.10;99.90;;;;;;5031513;28;20456;-73
2022/04/04 12:42:49;;;;;;;6.97;6.27;;;8.20;99.90;;;;;;5021852;28;20472;-73
2022/04/04 12:45:18;;;;;;;7.27;6.57;;;8.30;99.90;;;;;;5022094;28;20453;-73
2022/04/04 12:47:59;;;;;;;7.20;6.47;;;8.30;99.90;;;;;;5029914;28;20883;-75
2022/04/04 12:50:37;;;;;;;11.03;6.77;;;8.30;99.90;;;;;;5026256;28;20926;-73
2022/04/04 12:53:04;;;;;;;7.30;6.30;;;8.10;99.90;;;;;;5030694;28;20446;-73